createdAt,value
2019-03-31T00:01:11.750Z,14.18
2019-03-31T00:03:44.951Z,13.15
2019-03-31T00:06:18.369Z,14.50
2019-03-31T00:08:52.090Z,14.25
2019-03-31T00:11:25.770Z,15.23
2019-03-31T00:13:59.930Z,13.93
2019-03-31T00:16:33.571Z,13.45
2019-03-31T00:19:06.871Z,13.55
2019-03-31T00:21:40.730Z,13.62
2019-03-31T00:24:14.430Z,14.07
2019-03-31T00:26:48.111Z,14.40
2019-03-31T00:29:21.891Z,13.10
2019-03-31T00:31:56.310Z,12.98
2019-03-31T00:34:29.870Z,13.60
2019-03-31T00:37:03.610Z,14.20
2019-03-31T00:39:37.530Z,14.03
2019-03-31T00:42:10.990Z,13.68
2019-03-31T00:44:44.430Z,13.88
2019-03-31T00:47:18.330Z,14.23
2019-03-31T00:49:51.610Z,14.50
2019-03-31T00:52:25.169Z,13.78
2019-03-31T00:54:58.611Z,13.65
2019-03-31T00:57:32.090Z,13.78
2019-03-31T01:00:06.970Z,14.15
2019-03-31T01:02:40.591Z,14.63
2019-03-31T01:05:13.550Z,14.38
2019-03-31T01:07:46.871Z,13.72
2019-03-31T01:10:21.162Z,14.63
2019-03-31T01:12:54.331Z,13.70
2019-03-31T01:15:29.390Z,13.50
2019-03-31T01:18:02.834Z,14.23
2019-03-31T01:20:36.730Z,13.65
2019-03-31T01:23:10.330Z,14.10
2019-03-31T01:25:43.990Z,14.05
2019-03-31T01:28:17.556Z,13.53
2019-03-31T01:30:51.653Z,15.00
2019-03-31T01:33:25.689Z,12.98
2019-03-31T01:35:58.970Z,14.87
2019-03-31T01:38:32.871Z,14.58
2019-03-31T01:41:06.172Z,13.78
2019-03-31T01:43:39.229Z,14.20
2019-03-31T01:46:15.610Z,13.18
2019-03-31T01:48:48.990Z,14.68
2019-03-31T01:51:23.013Z,13.65
2019-03-31T01:53:56.571Z,14.03
2019-03-31T01:56:30.692Z,16.17
2019-03-31T01:59:04.691Z,14.15
2019-03-31T02:01:38.869Z,14.13
2019-03-31T02:04:12.434Z,15.50
2019-03-31T02:06:46.509Z,13.90
2019-03-31T02:09:21.150Z,13.72
2019-03-31T02:11:54.290Z,14.93
2019-03-31T02:14:28.350Z,15.50
2019-03-31T02:17:02.009Z,15.45
2019-03-31T02:19:34.985Z,15.63
2019-03-31T02:22:09.209Z,15.90
2019-03-31T02:24:42.490Z,16.80
2019-03-31T02:27:16.410Z,16.50
2019-03-31T02:29:50.190Z,16.75
2019-03-31T02:32:24.853Z,13.43
2019-03-31T02:34:58.290Z,15.15
2019-03-31T02:37:32.113Z,15.63
2019-03-31T02:40:05.689Z,15.55
2019-03-31T02:42:39.313Z,14.80
2019-03-31T02:45:13.013Z,14.90
2019-03-31T02:47:46.170Z,15.23
2019-03-31T02:50:45.529Z,15.15
2019-03-31T02:53:20.214Z,15.48
2019-03-31T02:55:54.589Z,15.45
2019-03-31T02:58:28.414Z,15.65
2019-03-31T03:01:02.011Z,15.18
2019-03-31T03:03:36.651Z,15.40
2019-03-31T03:06:11.170Z,14.80
2019-03-31T03:08:46.331Z,15.30
2019-03-31T03:11:21.751Z,14.07
2019-03-31T03:13:56.831Z,15.55
2019-03-31T03:16:30.811Z,15.53
2019-03-31T03:19:05.570Z,15.00
2019-03-31T03:21:39.129Z,14.65
2019-03-31T03:24:12.791Z,14.20
2019-03-31T03:26:46.338Z,14.58
2019-03-31T03:29:20.017Z,14.38
2019-03-31T03:31:54.291Z,14.80
2019-03-31T03:34:27.730Z,14.68
2019-03-31T03:37:01.256Z,13.53
2019-03-31T03:39:35.304Z,14.90
2019-03-31T03:42:08.374Z,13.45
2019-03-31T03:44:42.490Z,14.05
2019-03-31T03:47:16.351Z,14.50
2019-03-31T03:49:50.017Z,14.38
2019-03-31T03:52:23.193Z,13.68
2019-03-31T03:54:56.889Z,15.38
2019-03-31T03:57:30.491Z,15.35
2019-03-31T04:00:05.131Z,14.63
2019-03-31T04:02:38.812Z,14.20
2019-03-31T04:05:12.697Z,15.32
2019-03-31T04:07:46.331Z,15.03
2019-03-31T04:11:21.234Z,15.53
2019-03-31T04:13:51.931Z,15.40
2019-03-31T04:16:25.351Z,15.20
2019-03-31T04:18:58.829Z,15.43
2019-03-31T04:21:32.151Z,14.83
2019-03-31T04:24:06.283Z,14.30
2019-03-31T04:26:39.431Z,15.10
2019-03-31T04:29:13.290Z,14.95
2019-03-31T04:31:46.933Z,14.98
2019-03-31T04:34:21.056Z,13.80
2019-03-31T04:36:54.991Z,14.30
2019-03-31T04:39:28.896Z,13.58
2019-03-31T04:42:03.072Z,14.75
2019-03-31T04:44:36.431Z,13.15
2019-03-31T04:47:10.133Z,14.78
2019-03-31T04:49:43.931Z,14.25
2019-03-31T04:52:17.630Z,13.90
2019-03-31T04:54:51.450Z,14.03
2019-03-31T04:57:25.411Z,14.18
2019-03-31T04:59:58.910Z,14.07
2019-03-31T05:02:32.590Z,14.45
2019-03-31T05:05:06.416Z,21.68
2019-03-31T05:07:39.770Z,15.90
2019-03-31T05:10:13.573Z,14.47
2019-03-31T05:12:47.552Z,14.13
2019-03-31T05:15:21.287Z,13.25
2019-03-31T05:17:54.890Z,13.35
2019-03-31T05:20:28.151Z,13.32
2019-03-31T05:23:01.270Z,13.68
2019-03-31T05:25:34.731Z,13.08
2019-03-31T05:28:09.211Z,13.25
2019-03-31T05:30:43.590Z,59.80
2019-03-31T05:33:17.290Z,14.93
2019-03-31T05:35:50.790Z,15.80
2019-03-31T05:38:24.470Z,13.65
2019-03-31T05:40:58.410Z,13.40
2019-03-31T05:43:32.190Z,13.75
2019-03-31T05:46:05.810Z,13.28
2019-03-31T05:48:39.610Z,15.00
2019-03-31T05:51:12.910Z,13.28
2019-03-31T05:53:45.951Z,15.88
2019-03-31T05:56:18.849Z,14.68
2019-03-31T05:58:52.090Z,14.98
2019-03-31T06:01:25.830Z,13.20
2019-03-31T06:03:59.151Z,14.78
2019-03-31T06:06:32.150Z,14.90
2019-03-31T06:09:06.489Z,15.35
2019-03-31T06:11:39.852Z,15.35
2019-03-31T06:14:12.810Z,16.12
2019-03-31T06:16:46.970Z,17.15
2019-03-31T06:19:20.370Z,14.47
2019-03-31T06:21:53.852Z,14.73
2019-03-31T06:24:27.510Z,16.23
2019-03-31T06:27:01.589Z,17.40
2019-03-31T06:29:35.049Z,17.52
2019-03-31T06:32:09.035Z,17.00
2019-03-31T06:34:47.722Z,17.05
2019-03-31T06:37:17.133Z,17.67
2019-03-31T06:39:50.129Z,17.70
2019-03-31T06:42:22.972Z,16.35
2019-03-31T06:44:56.889Z,17.92
2019-03-31T06:47:30.849Z,16.85
2019-03-31T06:50:04.570Z,16.95
2019-03-31T06:52:38.510Z,18.07
2019-03-31T06:55:12.728Z,19.40
2019-03-31T06:57:46.332Z,18.65
2019-03-31T07:00:20.091Z,20.88
2019-03-31T07:02:53.729Z,18.90
2019-03-31T07:05:26.970Z,18.37
2019-03-31T07:08:01.112Z,17.73
2019-03-31T07:10:34.849Z,16.67
2019-03-31T07:13:08.730Z,16.30
2019-03-31T07:15:43.429Z,20.15
2019-03-31T07:18:16.891Z,15.25
2019-03-31T07:20:50.569Z,15.32
2019-03-31T07:23:24.730Z,15.20
2019-03-31T07:25:58.394Z,16.60
2019-03-31T07:28:32.709Z,14.13
2019-03-31T07:31:06.350Z,17.50
2019-03-31T07:33:40.016Z,16.15
2019-03-31T07:36:13.770Z,14.90
2019-03-31T07:38:47.698Z,13.00
2019-03-31T07:41:21.787Z,13.62
2019-03-31T07:43:55.511Z,12.73
2019-03-31T07:46:29.151Z,13.05
2019-03-31T07:49:02.374Z,13.22
2019-03-31T07:51:37.520Z,11.70
2019-03-31T07:54:10.490Z,13.35
2019-03-31T07:56:43.571Z,12.65
2019-03-31T07:59:17.010Z,12.47
2019-03-31T08:01:50.071Z,11.60
2019-03-31T08:04:24.311Z,9.98
2019-03-31T08:06:58.315Z,10.50
2019-03-31T08:09:31.134Z,10.20
2019-03-31T08:12:04.410Z,10.15
2019-03-31T08:14:38.672Z,10.40
2019-03-31T08:17:13.210Z,9.18
2019-03-31T08:19:46.893Z,10.90
2019-03-31T08:22:20.731Z,9.58
2019-03-31T08:24:54.390Z,11.25
2019-03-31T08:27:27.290Z,10.00
2019-03-31T08:30:01.477Z,11.43
2019-03-31T08:32:35.774Z,11.70
2019-03-31T08:35:10.250Z,11.68
2019-03-31T08:37:43.030Z,11.93
2019-03-31T08:40:17.390Z,12.25
2019-03-31T08:42:51.169Z,12.10
2019-03-31T08:45:24.771Z,11.63
2019-03-31T08:47:58.010Z,10.88
2019-03-31T08:50:34.667Z,11.40
2019-03-31T08:53:06.810Z,13.10
2019-03-31T08:55:39.771Z,12.40
2019-03-31T08:58:14.010Z,13.30
2019-03-31T09:01:12.391Z,14.53
2019-03-31T09:03:46.810Z,13.83
2019-03-31T09:06:20.632Z,13.10
2019-03-31T09:08:53.910Z,13.30
2019-03-31T09:11:27.770Z,12.30
2019-03-31T09:14:00.569Z,14.30
2019-03-31T09:16:34.450Z,14.20
2019-03-31T09:19:07.531Z,13.55
2019-03-31T09:21:41.050Z,14.50
2019-03-31T09:24:15.169Z,13.30
2019-03-31T09:26:49.270Z,13.50
2019-03-31T09:29:22.350Z,14.70
2019-03-31T09:31:56.251Z,14.63
2019-03-31T09:34:30.015Z,14.58
2019-03-31T09:37:03.942Z,14.40
2019-03-31T09:39:37.850Z,14.98
2019-03-31T09:42:11.652Z,15.13
2019-03-31T09:44:45.150Z,13.03
2019-03-31T09:47:19.710Z,14.83
2019-03-31T09:49:53.490Z,15.38
2019-03-31T09:52:26.994Z,13.10
2019-03-31T09:55:00.476Z,14.03
2019-03-31T09:57:33.771Z,14.33
2019-03-31T10:00:08.349Z,12.80
2019-03-31T10:02:42.090Z,13.50
2019-03-31T10:05:15.831Z,13.60
2019-03-31T10:07:49.110Z,14.00
2019-03-31T10:10:33.998Z,13.88
2019-03-31T10:13:07.670Z,14.23
2019-03-31T10:15:41.451Z,15.43
2019-03-31T10:18:17.924Z,14.73
2019-03-31T10:20:49.290Z,16.52
2019-03-31T10:23:23.190Z,18.40
2019-03-31T10:25:57.049Z,18.92
2019-03-31T10:28:30.650Z,20.35
2019-03-31T10:31:03.929Z,19.57
2019-03-31T10:33:38.391Z,18.57
2019-03-31T10:36:12.828Z,20.27
2019-03-31T10:38:46.330Z,18.92
2019-03-31T10:41:19.217Z,19.37
2019-03-31T10:43:52.509Z,18.10
2019-03-31T10:46:26.591Z,19.67
2019-03-31T10:49:00.229Z,20.30
2019-03-31T10:51:32.971Z,19.80
2019-03-31T10:54:07.410Z,18.87
2019-03-31T10:56:41.209Z,17.35
2019-03-31T10:59:14.810Z,19.45
2019-03-31T11:01:48.830Z,18.82
2019-03-31T11:04:21.649Z,20.75
2019-03-31T11:06:59.674Z,19.23
2019-03-31T11:09:29.249Z,18.93
2019-03-31T11:12:02.170Z,19.40
2019-03-31T11:14:34.989Z,21.55
2019-03-31T11:17:08.008Z,23.75
2019-03-31T11:19:41.249Z,23.50
2019-03-31T11:22:36.551Z,23.47
2019-03-31T11:25:20.292Z,23.85
2019-03-31T11:27:44.438Z,23.43
2019-03-31T11:30:17.201Z,22.23
2019-03-31T11:32:50.143Z,23.10
2019-03-31T11:35:23.842Z,24.70
2019-03-31T11:37:57.185Z,26.23
2019-03-31T11:40:30.742Z,25.20
2019-03-31T11:43:04.322Z,25.10
2019-03-31T11:45:37.342Z,25.23
2019-03-31T11:48:10.382Z,24.80
2019-03-31T11:50:43.862Z,22.87
2019-03-31T11:53:16.842Z,23.57
2019-03-31T11:55:50.303Z,22.53
2019-03-31T11:58:24.072Z,22.20
2019-03-31T12:00:58.962Z,22.60
2019-03-31T12:03:32.101Z,18.57
2019-03-31T12:06:05.661Z,18.13
2019-03-31T12:08:39.464Z,21.83
2019-03-31T12:11:13.261Z,18.10
2019-03-31T12:13:46.241Z,17.00
2019-03-31T12:16:18.922Z,17.83
2019-03-31T12:18:52.002Z,17.63
2019-03-31T12:21:25.341Z,18.50
2019-03-31T12:23:58.481Z,17.97
2019-03-31T12:26:31.370Z,16.40
2019-03-31T12:29:04.301Z,17.87
2019-03-31T12:31:38.061Z,17.33
2019-03-31T12:34:11.621Z,17.83
2019-03-31T12:36:45.341Z,17.73
2019-03-31T12:39:18.961Z,18.57
2019-03-31T12:41:52.263Z,19.70
2019-03-31T12:44:25.382Z,18.23
2019-03-31T12:46:58.461Z,16.33
2019-03-31T12:49:32.381Z,18.27
2019-03-31T12:52:05.341Z,18.00
2019-03-31T12:54:38.481Z,15.80
2019-03-31T12:57:11.405Z,15.80
2019-03-31T12:59:44.562Z,20.80
2019-03-31T13:02:18.163Z,14.37
2019-03-31T13:04:51.841Z,14.67
2019-03-31T13:07:25.152Z,13.67
2019-03-31T13:09:58.601Z,14.83
2019-03-31T13:12:34.823Z,16.10
2019-03-31T13:15:06.671Z,15.57
2019-03-31T13:17:39.904Z,13.90
2019-03-31T13:20:13.240Z,16.67
2019-03-31T13:22:46.284Z,19.17
2019-03-31T13:25:20.111Z,13.57
2019-03-31T13:27:53.822Z,14.60
2019-03-31T13:30:27.722Z,15.00
2019-03-31T13:33:01.240Z,20.73
2019-03-31T13:35:34.902Z,15.40
2019-03-31T13:38:11.279Z,15.27
2019-03-31T13:40:43.061Z,14.13
2019-03-31T13:43:16.701Z,15.67
2019-03-31T13:45:49.541Z,15.17
2019-03-31T13:48:23.200Z,14.70
2019-03-31T13:50:56.707Z,15.87
2019-03-31T13:53:28.800Z,17.70
2019-03-31T13:56:01.942Z,16.50
2019-03-31T13:58:36.400Z,16.17
2019-03-31T14:01:09.764Z,16.53
2019-03-31T14:03:43.462Z,15.00
2019-03-31T14:06:16.782Z,16.80
2019-03-31T14:08:50.625Z,16.40
2019-03-31T14:11:25.062Z,16.10
2019-03-31T14:13:58.302Z,18.03
2019-03-31T14:16:31.963Z,35.73
2019-03-31T14:19:06.142Z,16.60
2019-03-31T14:21:40.170Z,18.30
2019-03-31T14:24:14.050Z,17.63
2019-03-31T14:26:47.893Z,16.20
2019-03-31T14:29:21.543Z,17.13
2019-03-31T14:31:54.983Z,17.73
2019-03-31T14:34:28.582Z,17.20
2019-03-31T14:37:01.762Z,16.07
2019-03-31T14:39:35.123Z,17.03
2019-03-31T14:42:07.589Z,16.93
2019-03-31T14:44:40.889Z,17.93
2019-03-31T14:47:14.488Z,16.50
2019-03-31T14:49:47.957Z,16.53
2019-03-31T14:52:27.581Z,17.23
2019-03-31T14:54:56.317Z,16.30
2019-03-31T14:57:29.427Z,16.97
2019-03-31T15:00:14.085Z,17.90
2019-03-31T15:02:37.454Z,17.53
2019-03-31T15:05:10.954Z,17.73
2019-03-31T15:07:43.874Z,18.30
2019-03-31T15:10:17.694Z,18.00
2019-03-31T15:12:52.594Z,18.37
2019-03-31T15:15:26.253Z,17.00
2019-03-31T15:17:59.782Z,16.97
2019-03-31T15:20:33.079Z,16.93
2019-03-31T15:23:06.897Z,18.77
2019-03-31T15:25:43.183Z,19.63
2019-03-31T15:28:15.273Z,19.03
2019-03-31T15:30:49.134Z,19.37
2019-03-31T15:33:23.635Z,17.13
2019-03-31T15:35:57.132Z,18.73
2019-03-31T15:38:30.311Z,18.20
2019-03-31T15:41:03.552Z,18.40
2019-03-31T15:43:37.331Z,19.10
2019-03-31T15:46:10.639Z,17.20
2019-03-31T15:48:43.814Z,16.87
2019-03-31T15:51:17.091Z,16.67
2019-03-31T15:53:50.451Z,10.80
2019-03-31T15:56:24.051Z,12.30
2019-03-31T15:58:57.891Z,14.27
2019-03-31T16:01:31.771Z,11.50
2019-03-31T16:04:05.291Z,13.20
2019-03-31T16:06:38.591Z,10.47
2019-03-31T16:09:22.686Z,8.60
2019-03-31T16:11:53.633Z,8.10
2019-03-31T16:14:20.951Z,7.87
2019-03-31T16:16:54.050Z,8.80
2019-03-31T16:19:27.909Z,8.07
2019-03-31T16:22:00.774Z,7.90
2019-03-31T16:24:53.800Z,7.60
2019-03-31T16:27:26.639Z,7.07
2019-03-31T16:29:58.991Z,8.20
2019-03-31T16:32:31.591Z,8.80
2019-03-31T16:35:03.754Z,46.40
2019-03-31T16:37:36.891Z,7.00
2019-03-31T16:40:10.270Z,9.30
2019-03-31T16:42:43.391Z,9.00
2019-03-31T16:45:15.371Z,10.33
2019-03-31T16:47:48.190Z,8.30
2019-03-31T16:50:20.831Z,7.20
2019-03-31T16:52:54.731Z,8.83
2019-03-31T16:55:26.632Z,9.60
2019-03-31T16:57:59.911Z,7.93
2019-03-31T17:00:32.930Z,9.00
2019-03-31T17:03:05.791Z,7.43
2019-03-31T17:05:39.051Z,7.20
2019-03-31T17:08:11.750Z,7.53
2019-03-31T17:10:44.070Z,8.70
2019-03-31T17:13:17.291Z,7.90
2019-03-31T17:15:49.930Z,8.33
2019-03-31T17:18:22.310Z,8.50
2019-03-31T17:20:54.872Z,8.00
2019-03-31T17:23:27.651Z,8.40
2019-03-31T17:26:01.471Z,12.30
2019-03-31T17:28:34.571Z,9.47
2019-03-31T17:31:07.111Z,9.20
2019-03-31T17:33:39.671Z,8.27
2019-03-31T17:36:12.971Z,10.00
2019-03-31T17:38:45.692Z,8.60
2019-03-31T17:41:18.071Z,8.97
2019-03-31T17:43:51.272Z,9.80
2019-03-31T17:46:24.235Z,9.83
2019-03-31T17:48:57.252Z,9.50
2019-03-31T17:51:30.293Z,9.60
2019-03-31T17:54:05.898Z,10.53
2019-03-31T17:56:36.691Z,9.90
2019-03-31T17:59:09.712Z,10.10
2019-03-31T18:01:42.712Z,9.87
2019-03-31T18:04:15.011Z,9.87
2019-03-31T18:06:47.751Z,10.20
2019-03-31T18:09:21.511Z,11.33
2019-03-31T18:11:54.291Z,10.90
2019-03-31T18:14:26.511Z,9.97
2019-03-31T18:16:59.031Z,11.60
2019-03-31T18:19:32.010Z,11.67
2019-03-31T18:22:15.840Z,10.17
2019-03-31T18:24:38.971Z,12.00
2019-03-31T18:27:11.510Z,10.33
2019-03-31T18:29:44.550Z,11.77
2019-03-31T18:32:16.991Z,11.40
2019-03-31T18:34:48.991Z,11.03
2019-03-31T18:37:22.150Z,11.50
2019-03-31T18:39:54.791Z,12.03
2019-03-31T18:42:27.574Z,12.97
2019-03-31T18:45:00.355Z,12.37
2019-03-31T18:47:33.035Z,12.57
2019-03-31T18:50:05.051Z,13.00
2019-03-31T18:52:38.040Z,12.23
2019-03-31T18:55:19.891Z,11.50
2019-03-31T18:58:17.090Z,11.57
2019-03-31T19:01:05.231Z,12.73
2019-03-31T19:03:59.051Z,11.70
2019-03-31T19:06:46.311Z,11.60
2019-03-31T19:09:55.651Z,10.47
2019-03-31T19:12:46.455Z,12.20
2019-03-31T19:15:43.071Z,11.10
2019-03-31T19:18:39.951Z,12.30
2019-03-31T19:21:23.780Z,11.70
2019-03-31T19:24:07.631Z,12.30
2019-03-31T19:26:56.351Z,11.70
2019-03-31T19:29:52.490Z,11.33
2019-03-31T19:32:31.953Z,11.30
2019-03-31T19:35:21.451Z,12.73
2019-03-31T19:38:06.572Z,9.80
2019-03-31T19:41:06.792Z,11.03
2019-03-31T19:44:00.733Z,10.90
2019-03-31T19:47:04.410Z,11.30
2019-03-31T19:49:53.890Z,12.70
2019-03-31T19:52:53.612Z,11.20
2019-03-31T19:55:48.452Z,10.63
2019-03-31T19:58:40.471Z,10.50
2019-03-31T20:01:47.091Z,10.57
2019-03-31T20:04:40.951Z,9.60
2019-03-31T20:07:38.591Z,10.80
2019-03-31T20:10:24.231Z,9.70
2019-03-31T20:13:13.952Z,11.07
2019-03-31T20:16:04.712Z,10.37
2019-03-31T20:18:56.255Z,10.60
2019-03-31T20:21:33.414Z,10.73
2019-03-31T20:24:27.531Z,9.17
2019-03-31T20:27:16.471Z,8.57
2019-03-31T20:30:13.371Z,10.43
2019-03-31T20:33:07.194Z,9.50
2019-03-31T20:36:02.310Z,9.20
2019-03-31T20:38:40.791Z,9.57
2019-03-31T20:41:34.571Z,9.40
2019-03-31T20:44:07.311Z,9.50
2019-03-31T20:46:40.013Z,11.00
2019-03-31T20:49:11.977Z,10.57
2019-03-31T20:51:44.551Z,10.10
2019-03-31T20:54:17.831Z,10.33
2019-03-31T20:56:51.671Z,10.97
2019-03-31T20:59:24.648Z,10.73
2019-03-31T21:01:58.297Z,10.10
2019-03-31T21:04:30.731Z,11.40
2019-03-31T21:07:03.274Z,15.40
2019-03-31T21:09:44.798Z,12.73
2019-03-31T21:12:09.578Z,11.90
2019-03-31T21:14:42.631Z,12.90
2019-03-31T21:17:16.091Z,12.13
2019-03-31T21:19:49.170Z,11.20
2019-03-31T21:22:21.730Z,11.63
2019-03-31T21:24:55.090Z,11.87
2019-03-31T21:27:28.351Z,11.20
2019-03-31T21:30:01.051Z,11.10
2019-03-31T21:32:33.350Z,10.57
2019-03-31T21:35:07.171Z,11.00
2019-03-31T21:37:39.377Z,11.20
2019-03-31T21:40:12.710Z,11.20
2019-03-31T21:42:45.350Z,10.93
2019-03-31T21:45:18.538Z,11.50
2019-03-31T21:47:51.377Z,10.17
2019-03-31T21:50:23.997Z,11.00
2019-03-31T21:52:57.697Z,9.60
2019-03-31T21:55:29.959Z,10.73
2019-03-31T21:58:02.198Z,9.37
2019-03-31T22:00:55.460Z,10.10
2019-03-31T22:03:27.938Z,9.97
2019-03-31T22:06:01.401Z,8.53
2019-03-31T22:08:34.701Z,9.40
2019-03-31T22:11:07.099Z,9.43
2019-03-31T22:13:39.799Z,9.13
2019-03-31T22:16:13.050Z,7.83
2019-03-31T22:18:45.799Z,8.67
2019-03-31T22:21:18.406Z,8.87
2019-03-31T22:23:57.883Z,9.10
2019-03-31T22:26:26.398Z,7.47
2019-03-31T22:28:59.598Z,8.95
2019-03-31T22:31:32.826Z,9.10
2019-03-31T22:34:06.318Z,8.90
2019-03-31T22:36:40.040Z,8.48
2019-03-31T22:39:12.438Z,8.33
2019-03-31T22:41:45.300Z,8.43
2019-03-31T22:44:17.277Z,8.50
2019-03-31T22:46:54.332Z,9.33
2019-03-31T22:49:25.177Z,8.10
2019-03-31T22:51:58.740Z,7.83
2019-03-31T22:54:31.897Z,8.23
2019-03-31T22:57:04.882Z,8.25
2019-03-31T22:59:38.197Z,9.10
2019-03-31T23:02:10.920Z,8.40
2019-03-31T23:04:44.437Z,8.70
2019-03-31T23:07:17.069Z,9.50
2019-03-31T23:09:50.158Z,9.08
2019-03-31T23:12:22.504Z,8.15
2019-03-31T23:14:55.918Z,8.60
2019-03-31T23:17:28.198Z,9.60
2019-03-31T23:20:00.236Z,9.33
2019-03-31T23:22:33.097Z,10.23
2019-03-31T23:25:06.378Z,9.35
2019-03-31T23:27:38.557Z,9.43
2019-03-31T23:30:12.137Z,9.75
2019-03-31T23:32:44.877Z,9.53
2019-03-31T23:35:17.318Z,9.33
2019-03-31T23:37:50.122Z,9.98
2019-03-31T23:40:23.177Z,9.70
2019-03-31T23:42:56.457Z,9.40
2019-03-31T23:45:32.247Z,10.60
2019-03-31T23:48:03.718Z,10.65
2019-03-31T23:50:36.278Z,9.43
2019-03-31T23:53:08.718Z,9.78
2019-03-31T23:55:41.637Z,8.80
2019-03-31T23:58:15.220Z,9.10
